Time;durP1;ratioP1;P1;durP2;ratioP2;P2;SDS_P1;SDS_P2;PMS_P1;PMS_P2;Temp;Humidity;BMP_temperature;BMP_pressure;BME280_temperature;BME280_humidity;BME280_pressure;Samples;Min_cycle;Max_cycle;Signal;HPM_P1;HPM_P2
2021/11/29 00:02:01;;;;;;;2.17;0.95;;;11.00;87.70;;;;;;4975499;28;20600;-71
2021/11/29 00:04:27;;;;;;;2.53;1.55;;;10.90;87.60;;;;;;4977128;28;20038;-71
2021/11/29 00:06:53;;;;;;;1.17;0.95;;;10.90;87.80;;;;;;4976604;28;20437;-71
2021/11/29 00:09:19;;;;;;;1.38;0.68;;;10.90;87.80;;;;;;4976631;28;20028;-71
2021/11/29 00:11:45;;;;;;;1.65;1.08;;;10.90;88.00;;;;;;4976191;28;20366;-71
2021/11/29 00:14:10;;;;;;;0.70;0.52;;;10.90;88.30;;;;;;4976491;28;20062;-71
2021/11/29 00:16:36;;;;;;;0.63;0.30;;;10.90;88.40;;;;;;4976148;28;20469;-72
2021/11/29 00:19:05;;;;;;;0.63;0.57;;;11.00;88.60;;;;;;4976912;28;20049;-70
2021/11/29 00:21:35;;;;;;;0.65;0.38;;;11.00;88.20;;;;;;4976660;28;20473;-71
2021/11/29 00:24:01;;;;;;;0.28;0.20;;;11.10;88.30;;;;;;4977437;28;20154;-72
2021/11/29 00:26:27;;;;;;;0.28;0.13;;;11.10;88.60;;;;;;4976371;28;20089;-72
2021/11/29 00:28:53;;;;;;;0.90;0.35;;;11.10;88.70;;;;;;4976266;28;20136;-71
2021/11/29 00:31:19;;;;;;;0.20;0.20;;;11.20;88.50;;;;;;4975936;28;20461;-70
2021/11/29 00:33:45;;;;;;;0.28;0.20;;;11.20;88.20;;;;;;4975949;28;20178;-71
2021/11/29 00:36:11;;;;;;;0.22;0.00;;;11.30;88.30;;;;;;4975787;28;20066;-72
2021/11/29 00:38:37;;;;;;;0.00;0.00;;;11.30;88.30;;;;;;4975924;28;20161;-72
2021/11/29 00:41:03;;;;;;;0.08;0.08;;;11.40;88.40;;;;;;4976403;28;20038;-71
2021/11/29 00:43:29;;;;;;;0.15;0.05;;;11.50;88.30;;;;;;4974686;28;20027;-72
2021/11/29 00:45:54;;;;;;;1.00;0.82;;;11.60;88.00;;;;;;4975391;28;20085;-72
2021/11/29 00:48:20;;;;;;;1.25;1.02;;;11.60;87.10;;;;;;4975791;28;20034;-72
2021/11/29 00:50:46;;;;;;;1.20;0.98;;;11.60;86.30;;;;;;4975797;28;20023;-72
2021/11/29 00:53:12;;;;;;;1.60;1.40;;;11.50;86.10;;;;;;4975670;28;20023;-71
2021/11/29 00:55:39;;;;;;;2.05;1.35;;;11.40;86.00;;;;;;4976067;28;20080;-73
2021/11/29 00:58:07;;;;;;;1.80;1.55;;;11.30;86.00;;;;;;4975853;28;20111;-71
2021/11/29 01:00:33;;;;;;;0.50;0.50;;;11.20;86.10;;;;;;4975592;28;20031;-71
2021/11/29 01:02:59;;;;;;;1.13;1.02;;;11.20;86.30;;;;;;4975879;28;20045;-71
2021/11/29 01:05:25;;;;;;;0.25;0.20;;;11.10;86.40;;;;;;4974703;28;20472;-72
2021/11/29 01:07:52;;;;;;;0.60;0.60;;;11.10;86.60;;;;;;4973841;28;20022;-70
2021/11/29 01:10:18;;;;;;;1.83;0.85;;;11.00;86.40;;;;;;4975480;28;20109;-69
2021/11/29 01:12:45;;;;;;;1.15;0.90;;;11.00;86.30;;;;;;4975313;28;20034;-71
2021/11/29 01:15:17;;;;;;;0.28;0.20;;;11.00;86.50;;;;;;4975066;28;20034;-71
2021/11/29 01:17:43;;;;;;;0.65;0.65;;;10.90;86.90;;;;;;4975225;28;20109;-71
2021/11/29 01:20:11;;;;;;;0.75;0.70;;;10.90;87.10;;;;;;4974977;28;20038;-71
2021/11/29 01:22:38;;;;;;;0.93;0.80;;;10.80;87.10;;;;;;4973851;28;20600;-71
2021/11/29 01:25:05;;;;;;;1.17;0.93;;;10.80;87.30;;;;;;4975305;28;20035;-71
2021/11/29 01:27:30;;;;;;;1.48;1.38;;;10.80;87.40;;;;;;4975122;28;20031;-72
2021/11/29 01:29:57;;;;;;;1.20;0.90;;;10.80;87.60;;;;;;4975310;28;20484;-71
2021/11/29 01:32:22;;;;;;;0.32;0.32;;;10.90;87.70;;;;;;4974806;28;20481;-71
2021/11/29 01:34:48;;;;;;;0.32;0.28;;;10.90;88.00;;;;;;4974728;28;20037;-72
2021/11/29 01:37:14;;;;;;;0.15;0.15;;;10.90;88.20;;;;;;4975206;28;20101;-71
2021/11/29 01:39:40;;;;;;;1.17;1.08;;;10.90;88.50;;;;;;4975360;28;20388;-71
2021/11/29 01:42:10;;;;;;;0.15;0.10;;;10.90;88.50;;;;;;4974715;28;20031;-70
2021/11/29 01:44:37;;;;;;;0.00;0.00;;;11.00;88.50;;;;;;4974541;28;20043;-72
2021/11/29 01:47:04;;;;;;;0.00;0.00;;;11.00;88.50;;;;;;4974535;28;20034;-71
2021/11/29 01:49:30;;;;;;;0.00;0.00;;;11.00;88.60;;;;;;4973411;28;20093;-71
2021/11/29 01:51:56;;;;;;;0.00;0.00;;;11.10;88.80;;;;;;4974825;28;20031;-71
2021/11/29 01:54:22;;;;;;;0.00;0.00;;;11.10;88.80;;;;;;4974537;28;20091;-71
2021/11/29 01:56:48;;;;;;;0.00;0.00;;;11.20;88.80;;;;;;4974791;28;20500;-71
2021/11/29 01:59:14;;;;;;;0.00;0.00;;;11.20;88.70;;;;;;4975056;28;20117;-72
2021/11/29 02:01:41;;;;;;;0.00;0.00;;;11.20;88.80;;;;;;4974721;28;20544;-70
2021/11/29 02:04:11;;;;;;;0.00;0.00;;;11.30;89.00;;;;;;4974626;28;20035;-71
2021/11/29 02:06:37;;;;;;;0.00;0.00;;;11.30;89.50;;;;;;4974619;28;20047;-71
2021/11/29 02:09:04;;;;;;;0.00;0.00;;;11.30;88.90;;;;;;4975104;28;20034;-72
2021/11/29 02:11:31;;;;;;;0.00;0.00;;;11.30;89.00;;;;;;4974931;28;20034;-71
2021/11/29 02:13:59;;;;;;;0.00;0.00;;;11.30;89.10;;;;;;4974272;28;20034;-72
2021/11/29 02:16:26;;;;;;;0.00;0.00;;;11.40;89.10;;;;;;4974527;28;20035;-70
2021/11/29 02:18:52;;;;;;;0.00;0.00;;;11.40;89.40;;;;;;4977321;28;20123;-72
2021/11/29 02:21:20;;;;;;;0.00;0.00;;;11.40;89.20;;;;;;4978580;28;20058;-71
2021/11/29 02:23:53;;;;;;;0.00;0.00;;;11.50;89.30;;;;;;4978377;28;20118;-72
2021/11/29 02:26:22;;;;;;;0.00;0.00;;;11.50;89.30;;;;;;4978493;28;20039;-71
2021/11/29 02:28:56;;;;;;;0.00;0.00;;;11.50;89.00;;;;;;4978230;28;20122;-72
2021/11/29 02:31:26;;;;;;;0.00;0.00;;;11.60;89.00;;;;;;4978488;28;20033;-71
2021/11/29 02:33:52;;;;;;;0.00;0.00;;;11.60;88.70;;;;;;4977358;28;20027;-71
2021/11/29 02:36:18;;;;;;;0.00;0.00;;;11.60;88.60;;;;;;4978183;28;20031;-70
2021/11/29 02:38:44;;;;;;;0.00;0.00;;;11.60;88.50;;;;;;4977141;28;20023;-71
2021/11/29 02:41:10;;;;;;;0.00;0.00;;;11.60;88.70;;;;;;4978264;28;20449;-71
2021/11/29 02:43:36;;;;;;;0.00;0.00;;;11.60;88.90;;;;;;4978334;28;20113;-71
2021/11/29 02:46:02;;;;;;;0.00;0.00;;;11.60;88.90;;;;;;4977652;28;20030;-72
2021/11/29 02:48:58;;;;;;;0.00;0.00;;;11.70;88.60;;;;;;4978139;28;20034;-72
2021/11/29 02:51:30;;;;;;;0.00;0.00;;;11.70;88.50;;;;;;4977551;28;20043;-71
2021/11/29 02:54:04;;;;;;;0.00;0.00;;;11.70;88.30;;;;;;4977401;28;20069;-71
2021/11/29 02:56:30;;;;;;;;;;;11.70;87.80;;;;;;4978240;28;20035;-71
2021/11/29 02:58:56;;;;;;;0.00;0.00;;;11.70;87.70;;;;;;4977613;28;20287;-71
2021/11/29 03:01:22;;;;;;;0.00;0.00;;;11.60;87.10;;;;;;4977826;28;20026;-70
2021/11/29 03:03:51;;;;;;;0.00;0.00;;;11.50;87.30;;;;;;4977650;28;20440;-72
2021/11/29 03:06:18;;;;;;;0.00;0.00;;;11.50;87.60;;;;;;4977894;28;20082;-71
2021/11/29 03:08:45;;;;;;;0.00;0.00;;;11.50;87.70;;;;;;4977627;28;20026;-71
2021/11/29 03:11:12;;;;;;;0.00;0.00;;;11.50;87.90;;;;;;4977707;28;20034;-71
2021/11/29 03:13:39;;;;;;;0.00;0.00;;;11.60;87.80;;;;;;4977421;28;20031;-71
2021/11/29 03:16:04;;;;;;;0.00;0.00;;;11.50;87.80;;;;;;4977425;28;20045;-71
2021/11/29 03:18:40;;;;;;;0.00;0.00;;;11.50;87.60;;;;;;4977665;28;20023;-71
2021/11/29 03:21:08;;;;;;;0.00;0.00;;;11.50;87.80;;;;;;4977682;28;20066;-70
2021/11/29 03:23:35;;;;;;;0.00;0.00;;;11.50;87.90;;;;;;4977463;28;20110;-70
2021/11/29 03:26:05;;;;;;;0.00;0.00;;;11.60;88.00;;;;;;4976977;28;20452;-71
2021/11/29 03:28:34;;;;;;;0.10;0.00;;;11.60;87.40;;;;;;4976358;28;20031;-72
2021/11/29 03:30:59;;;;;;;0.00;0.00;;;11.60;87.40;;;;;;4976879;28;20023;-72
2021/11/29 03:33:25;;;;;;;0.00;0.00;;;11.60;87.60;;;;;;4976977;28;20420;-72
2021/11/29 03:35:51;;;;;;;0.00;0.00;;;11.60;87.30;;;;;;4977124;28;20026;-72
2021/11/29 03:38:16;;;;;;;0.00;0.00;;;11.60;87.30;;;;;;4977004;28;20023;-71
2021/11/29 03:40:42;;;;;;;0.00;0.00;;;11.50;87.10;;;;;;4977004;28;20023;-71
2021/11/29 03:43:08;;;;;;;0.00;0.00;;;11.50;87.50;;;;;;4977474;28;20035;-71
2021/11/29 03:45:35;;;;;;;0.00;0.00;;;11.50;87.50;;;;;;4976817;28;20114;-72
2021/11/29 03:48:00;;;;;;;0.00;0.00;;;11.50;87.80;;;;;;4976742;28;20093;-71
2021/11/29 03:50:26;;;;;;;0.00;0.00;;;11.60;88.00;;;;;;4975805;28;20026;-72
2021/11/29 03:52:52;;;;;;;0.10;0.00;;;11.60;88.30;;;;;;4976690;28;20464;-71
2021/11/29 03:55:18;;;;;;;0.00;0.00;;;11.70;88.00;;;;;;4975351;28;20058;-71
2021/11/29 03:57:44;;;;;;;0.00;0.00;;;11.70;87.80;;;;;;4976927;28;20035;-72
2021/11/29 04:00:11;;;;;;;0.00;0.00;;;11.70;87.80;;;;;;4977161;28;20042;-71
2021/11/29 04:02:37;;;;;;;0.00;0.00;;;11.80;88.00;;;;;;4976871;28;20034;-72
2021/11/29 04:05:03;;;;;;;0.00;0.00;;;11.80;87.90;;;;;;4976913;28;20122;-71
2021/11/29 04:07:28;;;;;;;0.00;0.00;;;11.90;87.80;;;;;;4976540;28;20159;-72
2021/11/29 04:09:54;;;;;;;0.00;0.00;;;11.90;87.60;;;;;;4975415;28;20433;-72
2021/11/29 04:12:21;;;;;;;0.00;0.00;;;11.90;87.30;;;;;;4976714;28;20097;-71
2021/11/29 04:14:47;;;;;;;0.00;0.00;;;11.90;87.50;;;;;;4976620;28;20031;-71
2021/11/29 04:17:12;;;;;;;0.00;0.00;;;11.90;87.50;;;;;;4975173;28;20481;-71
2021/11/29 04:19:42;;;;;;;0.00;0.00;;;11.90;87.70;;;;;;4975000;28;20022;-72
2021/11/29 04:22:08;;;;;;;0.00;0.00;;;11.90;87.50;;;;;;4976317;28;20037;-71
2021/11/29 04:24:34;;;;;;;0.00;0.00;;;11.90;87.50;;;;;;4976240;28;20031;-72
2021/11/29 04:27:02;;;;;;;0.00;0.00;;;12.00;87.70;;;;;;4976386;28;20074;-72
2021/11/29 04:29:29;;;;;;;0.00;0.00;;;12.00;87.60;;;;;;4976273;28;20031;-71
2021/11/29 04:31:55;;;;;;;0.00;0.00;;;12.10;87.40;;;;;;4974844;28;20370;-72
2021/11/29 04:34:21;;;;;;;0.00;0.00;;;12.00;87.00;;;;;;4975620;28;20086;-71
2021/11/29 04:36:47;;;;;;;0.00;0.00;;;12.10;87.00;;;;;;4975811;28;20085;-72
2021/11/29 04:39:13;;;;;;;0.00;0.00;;;12.00;87.10;;;;;;4975975;28;20034;-71
2021/11/29 04:41:39;;;;;;;0.00;0.00;;;12.10;87.00;;;;;;4975934;28;20027;-71
2021/11/29 04:44:06;;;;;;;0.00;0.00;;;12.10;86.80;;;;;;4976086;28;20039;-71
2021/11/29 04:46:33;;;;;;;0.00;0.00;;;12.00;86.60;;;;;;4975724;28;20042;-71
2021/11/29 04:48:58;;;;;;;0.00;0.00;;;12.00;86.70;;;;;;4976123;28;20054;-72
2021/11/29 04:51:24;;;;;;;0.00;0.00;;;11.90;86.80;;;;;;4975693;28;20428;-73
2021/11/29 04:53:51;;;;;;;0.00;0.00;;;11.90;86.90;;;;;;4975500;28;20026;-72
2021/11/29 04:56:17;;;;;;;0.00;0.00;;;11.90;87.20;;;;;;4975880;28;20047;-71
2021/11/29 04:58:43;;;;;;;0.00;0.00;;;11.90;87.30;;;;;;4975790;28;20034;-72
2021/11/29 05:01:10;;;;;;;0.00;0.00;;;12.00;87.50;;;;;;4975587;28;20105;-72
2021/11/29 05:03:36;;;;;;;0.00;0.00;;;12.00;87.50;;;;;;4975159;28;20031;-71
2021/11/29 05:06:02;;;;;;;0.00;0.00;;;12.10;87.40;;;;;;4975361;28;20039;-72
2021/11/29 05:08:27;;;;;;;0.00;0.00;;;12.10;87.50;;;;;;4975559;28;20035;-72
2021/11/29 05:10:53;;;;;;;0.00;0.00;;;12.20;87.50;;;;;;4975707;28;20114;-71
2021/11/29 05:13:19;;;;;;;0.00;0.00;;;12.20;87.40;;;;;;4975710;28;20077;-72
2021/11/29 05:15:45;;;;;;;0.00;0.00;;;12.20;87.50;;;;;;4975458;28;20488;-72
2021/11/29 05:18:10;;;;;;;0.00;0.00;;;12.30;87.50;;;;;;4967162;28;20437;-72
2021/11/29 05:20:36;;;;;;;0.00;0.00;;;12.30;87.60;;;;;;4955964;28;20106;-73
2021/11/29 05:23:02;;;;;;;0.00;0.00;;;12.30;87.70;;;;;;4967306;28;20057;-73
2021/11/29 05:25:28;;;;;;;0.00;0.00;;;12.40;87.90;;;;;;4957686;28;20041;-71
2021/11/29 05:27:54;;;;;;;0.00;0.00;;;12.50;87.80;;;;;;4969980;28;20027;-71
2021/11/29 05:30:20;;;;;;;0.00;0.00;;;12.50;87.70;;;;;;4955424;28;20084;-72
2021/11/29 05:32:45;;;;;;;0.00;0.00;;;12.50;87.70;;;;;;4955439;28;20524;-72
2021/11/29 05:35:11;;;;;;;0.00;0.00;;;12.50;87.70;;;;;;4955989;28;20082;-72
2021/11/29 05:37:37;;;;;;;0.00;0.00;;;12.60;87.70;;;;;;4956979;28;20398;-74
2021/11/29 05:40:04;;;;;;;0.00;0.00;;;12.70;87.70;;;;;;4975084;28;20030;-72
2021/11/29 05:42:30;;;;;;;0.00;0.00;;;12.70;87.70;;;;;;4975098;28;20057;-71
2021/11/29 05:44:56;;;;;;;0.00;0.00;;;12.70;87.60;;;;;;4974823;28;20066;-73
2021/11/29 05:47:22;;;;;;;0.00;0.00;;;12.80;87.50;;;;;;4974703;28;20030;-72
2021/11/29 05:49:48;;;;;;;0.00;0.00;;;12.90;87.60;;;;;;4974952;28;20556;-73
2021/11/29 05:52:14;;;;;;;0.00;0.00;;;12.90;87.70;;;;;;4972992;28;20066;-73
2021/11/29 05:54:41;;;;;;;0.00;0.00;;;12.90;87.70;;;;;;4975012;28;20050;-72
2021/11/29 05:57:07;;;;;;;0.00;0.00;;;13.00;87.80;;;;;;4974682;28;20474;-72
2021/11/29 05:59:33;;;;;;;0.00;0.00;;;13.00;87.90;;;;;;4973329;28;20118;-72
2021/11/29 06:01:58;;;;;;;0.00;0.00;;;13.00;87.90;;;;;;4974363;28;20071;-72
2021/11/29 06:04:24;;;;;;;0.00;0.00;;;13.10;87.90;;;;;;4974442;28;20086;-71
2021/11/29 06:06:50;;;;;;;0.00;0.00;;;13.10;87.90;;;;;;4957134;28;20035;-71
2021/11/29 06:09:17;;;;;;;0.00;0.00;;;13.10;88.10;;;;;;4974426;28;20027;-72
2021/11/29 06:11:43;;;;;;;0.00;0.00;;;13.20;88.70;;;;;;4974130;28;20023;-71
2021/11/29 06:14:09;;;;;;;0.00;0.00;;;13.20;88.10;;;;;;4974802;28;20038;-71
2021/11/29 06:16:35;;;;;;;0.00;0.00;;;13.30;88.00;;;;;;4974633;28;20117;-71
2021/11/29 06:19:01;;;;;;;0.00;0.00;;;13.30;87.90;;;;;;4974390;28;20027;-72
2021/11/29 06:21:27;;;;;;;0.00;0.00;;;13.30;88.00;;;;;;4974752;28;20121;-71
2021/11/29 06:23:53;;;;;;;0.00;0.00;;;13.30;87.90;;;;;;4973188;28;20114;-72
2021/11/29 06:26:20;;;;;;;0.00;0.00;;;13.30;87.80;;;;;;4973963;28;20125;-71
2021/11/29 06:28:46;;;;;;;0.00;0.00;;;13.30;88.00;;;;;;4974272;28;20027;-71
2021/11/29 06:31:12;;;;;;;0.00;0.00;;;13.30;88.10;;;;;;4973952;28;20531;-71
2021/11/29 06:33:38;;;;;;;0.00;0.00;;;13.30;88.20;;;;;;4973994;28;20473;-72
2021/11/29 06:36:04;;;;;;;0.00;0.00;;;13.30;88.30;;;;;;4974220;28;20037;-71
2021/11/29 06:38:30;;;;;;;0.00;0.00;;;13.40;88.40;;;;;;4974098;28;20094;-71
2021/11/29 06:40:57;;;;;;;0.00;0.00;;;13.40;88.50;;;;;;4974085;28;20115;-72
2021/11/29 06:43:25;;;;;;;0.00;0.00;;;13.40;88.50;;;;;;4974202;28;20023;-72
2021/11/29 06:45:52;;;;;;;0.00;0.00;;;13.40;88.60;;;;;;4972810;28;20155;-73
2021/11/29 06:48:18;;;;;;;0.00;0.00;;;13.40;88.70;;;;;;4973872;28;20038;-72
2021/11/29 06:50:45;;;;;;;0.00;0.00;;;13.40;88.70;;;;;;4973896;28;20023;-71
2021/11/29 06:53:11;;;;;;;0.00;0.00;;;13.40;88.70;;;;;;4973786;28;20035;-72
2021/11/29 06:55:37;;;;;;;0.00;0.00;;;13.40;88.70;;;;;;4974482;28;20492;-71
2021/11/29 06:58:03;;;;;;;0.00;0.00;;;13.50;88.90;;;;;;4974031;28;20031;-72
2021/11/29 07:00:31;;;;;;;0.00;0.00;;;13.50;88.80;;;;;;4972907;28;20023;-71
2021/11/29 07:02:57;;;;;;;0.00;0.00;;;13.50;88.70;;;;;;4974402;28;20066;-71
2021/11/29 07:05:25;;;;;;;0.00;0.00;;;13.50;88.60;;;;;;4976543;28;20129;-73
2021/11/29 07:07:53;;;;;;;0.00;0.00;;;13.60;88.60;;;;;;4977634;28;20380;-72
2021/11/29 07:10:20;;;;;;;0.00;0.00;;;13.60;88.50;;;;;;4977393;28;20038;-73
2021/11/29 07:12:47;;;;;;;0.00;0.00;;;13.60;88.40;;;;;;4977641;28;20117;-71
2021/11/29 07:15:14;;;;;;;0.00;0.00;;;13.60;88.30;;;;;;4977439;28;20034;-72
2021/11/29 07:17:41;;;;;;;0.00;0.00;;;13.60;88.20;;;;;;4977035;28;20062;-72
2021/11/29 07:20:08;;;;;;;0.00;0.00;;;13.70;88.20;;;;;;4975993;28;20122;-73
2021/11/29 07:22:35;;;;;;;0.00;0.00;;;13.70;88.20;;;;;;4977237;28;20030;-73
2021/11/29 07:25:03;;;;;;;0.00;0.00;;;13.60;88.20;;;;;;4976224;28;20047;-72
2021/11/29 07:27:31;;;;;;;0.00;0.00;;;13.70;88.10;;;;;;4976449;28;20039;-72
2021/11/29 07:29:58;;;;;;;0.00;0.00;;;13.70;88.20;;;;;;4976934;28;20493;-72
2021/11/29 07:32:25;;;;;;;0.00;0.00;;;13.60;88.30;;;;;;4977242;28;20085;-72
2021/11/29 07:34:52;;;;;;;0.00;0.00;;;13.70;88.30;;;;;;4976986;28;20097;-71
2021/11/29 07:37:19;;;;;;;0.00;0.00;;;13.70;88.20;;;;;;4976630;28;20038;-72
2021/11/29 07:39:47;;;;;;;0.00;0.00;;;13.70;88.20;;;;;;4976754;28;20045;-71
2021/11/29 07:42:14;;;;;;;0.00;0.00;;;13.80;88.20;;;;;;4977028;28;20491;-71
2021/11/29 07:44:41;;;;;;;0.00;0.00;;;13.80;88.10;;;;;;4976380;28;20034;-72
2021/11/29 07:47:07;;;;;;;0.00;0.00;;;13.80;87.90;;;;;;4976802;28;20031;-72
2021/11/29 07:49:34;;;;;;;0.00;0.00;;;13.90;88.00;;;;;;4976905;28;20035;-72
2021/11/29 07:52:00;;;;;;;0.00;0.00;;;13.90;87.80;;;;;;4976912;28;20045;-72
2021/11/29 07:54:26;;;;;;;0.00;0.00;;;14.00;87.60;;;;;;4976586;28;20051;-72
2021/11/29 07:56:51;;;;;;;0.00;0.00;;;14.10;87.40;;;;;;4975463;28;20406;-71
2021/11/29 07:59:20;;;;;;;0.00;0.00;;;14.10;87.30;;;;;;4976407;28;20031;-72
2021/11/29 08:01:46;;;;;;;0.00;0.00;;;14.10;87.20;;;;;;4976545;28;20385;-72
2021/11/29 08:04:12;;;;;;;0.00;0.00;;;14.10;86.70;;;;;;4976633;28;20030;-73
2021/11/29 08:06:38;;;;;;;0.00;0.00;;;14.20;86.50;;;;;;4976150;28;20113;-73
2021/11/29 08:09:04;;;;;;;0.00;0.00;;;14.20;86.30;;;;;;4975324;28;20373;-72
2021/11/29 08:11:30;;;;;;;0.00;0.00;;;14.20;86.10;;;;;;4975910;28;20023;-72
2021/11/29 08:13:56;;;;;;;0.52;0.00;;;14.20;86.00;;;;;;4975117;28;20377;-72
2021/11/29 08:16:21;;;;;;;0.00;0.00;;;14.20;86.50;;;;;;4975884;28;20038;-71
2021/11/29 08:18:48;;;;;;;0.13;0.00;;;14.20;86.10;;;;;;4976216;28;20031;-72
2021/11/29 08:21:13;;;;;;;0.00;0.00;;;14.20;85.90;;;;;;4976274;28;20031;-71
2021/11/29 08:23:39;;;;;;;0.00;0.00;;;14.20;85.90;;;;;;4976251;28;20381;-72
2021/11/29 08:26:05;;;;;;;0.00;0.00;;;14.30;85.90;;;;;;4976206;28;20432;-72
2021/11/29 08:28:31;;;;;;;0.00;0.00;;;14.30;85.70;;;;;;4975994;28;20456;-71
2021/11/29 08:30:57;;;;;;;0.00;0.00;;;14.30;85.50;;;;;;4976124;28;20031;-71
2021/11/29 08:33:23;;;;;;;0.00;0.00;;;14.30;85.30;;;;;;4975742;28;20026;-71
2021/11/29 08:35:49;;;;;;;0.00;0.00;;;14.30;85.30;;;;;;4976096;28;20034;-72
2021/11/29 08:38:17;;;;;;;0.00;0.00;;;14.40;85.30;;;;;;4974782;28;20381;-72
2021/11/29 08:40:43;;;;;;;0.00;0.00;;;14.40;85.30;;;;;;4975936;28;20182;-72
2021/11/29 08:43:11;;;;;;;0.00;0.00;;;14.50;85.00;;;;;;4975859;28;20449;-72
2021/11/29 08:45:39;;;;;;;0.00;0.00;;;14.50;84.70;;;;;;4975850;28;20039;-71
2021/11/29 08:48:07;;;;;;;0.00;0.00;;;14.40;84.70;;;;;;4975548;28;20027;-72
2021/11/29 08:50:35;;;;;;;0.00;0.00;;;14.50;85.00;;;;;;4975592;28;20019;-72
2021/11/29 08:53:07;;;;;;;0.00;0.00;;;14.50;84.80;;;;;;4975752;28;20061;-71
2021/11/29 08:55:35;;;;;;;0.00;0.00;;;14.50;84.60;;;;;;4969292;28;20055;-72
2021/11/29 08:58:06;;;;;;;0.00;0.00;;;14.50;84.20;;;;;;4964311;28;20380;-72
2021/11/29 09:00:33;;;;;;;0.00;0.00;;;14.50;84.10;;;;;;4964226;28;20500;-72
2021/11/29 09:03:02;;;;;;;0.00;0.00;;;14.40;84.30;;;;;;4964336;28;20130;-72
2021/11/29 09:05:28;;;;;;;0.00;0.00;;;14.40;84.30;;;;;;4964330;28;20034;-72
2021/11/29 09:07:54;;;;;;;0.00;0.00;;;14.40;84.50;;;;;;4964366;28;20030;-73
2021/11/29 09:10:23;;;;;;;0.00;0.00;;;14.40;84.50;;;;;;4964007;28;20023;-73
2021/11/29 09:12:48;;;;;;;0.00;0.00;;;14.40;84.50;;;;;;4965383;28;20027;-74
2021/11/29 09:15:16;;;;;;;0.00;0.00;;;14.40;84.50;;;;;;4964125;28;20155;-73
2021/11/29 09:17:42;;;;;;;0.00;0.00;;;14.30;84.80;;;;;;4963761;28;20035;-72
2021/11/29 09:20:10;;;;;;;0.00;0.00;;;14.30;84.90;;;;;;4965052;28;20080;-72
2021/11/29 09:22:38;;;;;;;0.00;0.00;;;14.30;85.30;;;;;;4964123;28;20027;-72
2021/11/29 09:25:05;;;;;;;0.00;0.00;;;14.30;85.10;;;;;;4963105;28;20043;-74
2021/11/29 09:27:31;;;;;;;0.00;0.00;;;14.30;85.10;;;;;;4963149;28;20373;-72
2021/11/29 09:29:57;;;;;;;0.00;0.00;;;14.20;85.10;;;;;;4964042;28;20041;-72
2021/11/29 09:32:23;;;;;;;0.00;0.00;;;14.20;85.60;;;;;;4965717;28;20102;-72
2021/11/29 09:34:49;;;;;;;0.00;0.00;;;14.10;85.90;;;;;;4974957;28;20036;-72
2021/11/29 09:37:18;;;;;;;0.00;0.00;;;14.20;86.00;;;;;;4974878;28;20037;-72
2021/11/29 09:39:45;;;;;;;0.00;0.00;;;14.20;86.00;;;;;;4975353;28;20027;-72
2021/11/29 09:42:11;;;;;;;0.00;0.00;;;14.20;85.90;;;;;;4973526;28;20118;-72
2021/11/29 09:44:36;;;;;;;0.00;0.00;;;14.10;86.00;;;;;;4973519;28;20110;-71
2021/11/29 09:47:04;;;;;;;0.00;0.00;;;14.10;86.10;;;;;;4973703;28;20031;-72
2021/11/29 09:49:30;;;;;;;0.00;0.00;;;14.10;86.30;;;;;;4973937;28;20539;-72
2021/11/29 09:52:00;;;;;;;0.00;0.00;;;14.10;86.40;;;;;;4961609;28;20035;-69
2021/11/29 09:54:28;;;;;;;0.00;0.00;;;14.10;86.90;;;;;;4964825;28;20050;-70
2021/11/29 09:56:56;;;;;;;0.00;0.00;;;14.00;87.20;;;;;;4964103;28;20057;-73
2021/11/29 09:59:24;;;;;;;0.00;0.00;;;14.10;87.10;;;;;;4961878;28;20039;-72
2021/11/29 10:01:53;;;;;;;0.10;0.00;;;14.00;87.70;;;;;;4955048;28;20030;-71
2021/11/29 10:04:20;;;;;;;0.00;0.00;;;13.90;87.70;;;;;;4962326;28;20432;-71
2021/11/29 10:06:52;;;;;;;0.00;0.00;;;14.00;88.00;;;;;;4962194;28;20468;-72
2021/11/29 10:09:29;;;;;;;0.00;0.00;;;14.00;88.40;;;;;;4955186;28;20118;-73
2021/11/29 10:12:00;;;;;;;0.00;0.00;;;14.00;88.00;;;;;;4959139;28;20031;-71
2021/11/29 10:14:26;;;;;;;0.00;0.00;;;14.00;88.00;;;;;;4955212;28;20122;-71
2021/11/29 10:16:59;;;;;;;0.00;0.00;;;14.00;88.00;;;;;;4953824;28;20118;-74
2021/11/29 10:19:25;;;;;;;0.00;0.00;;;14.00;88.70;;;;;;4955172;28;20075;-72
2021/11/29 10:21:52;;;;;;;0.00;0.00;;;14.00;89.00;;;;;;4961672;28;20385;-72
2021/11/29 10:24:19;;;;;;;0.00;0.00;;;14.00;88.50;;;;;;4964876;28;20034;-72
2021/11/29 10:26:55;;;;;;;0.00;0.00;;;13.90;88.50;;;;;;4972535;28;20031;-72
2021/11/29 10:29:25;;;;;;;0.00;0.00;;;13.90;88.70;;;;;;4968085;28;20030;-71
2021/11/29 10:31:53;;;;;;;0.00;0.00;;;13.90;89.10;;;;;;4960265;28;20394;-71
2021/11/29 10:34:29;;;;;;;0.00;0.00;;;13.90;89.20;;;;;;4953890;28;20481;-71
2021/11/29 10:36:58;;;;;;;0.00;0.00;;;13.90;89.20;;;;;;4953812;29;20036;-72
2021/11/29 10:39:31;;;;;;;0.00;0.00;;;13.90;89.30;;;;;;4974073;28;20428;-72
2021/11/29 10:42:00;;;;;;;0.00;0.00;;;13.80;89.30;;;;;;4978231;28;20472;-74
2021/11/29 10:44:29;;;;;;;0.00;0.00;;;13.90;90.20;;;;;;4966276;28;20031;-72
2021/11/29 10:47:05;;;;;;;0.00;0.00;;;13.80;90.00;;;;;;4967467;28;20480;-72
2021/11/29 10:49:33;;;;;;;0.00;0.00;;;13.80;90.10;;;;;;4968785;28;20031;-72
2021/11/29 10:52:01;;;;;;;0.00;0.00;;;13.80;90.50;;;;;;4968123;28;20031;-71
2021/11/29 10:54:29;;;;;;;0.00;0.00;;;13.80;90.80;;;;;;4972560;28;20134;-71
2021/11/29 10:56:56;;;;;;;0.00;0.00;;;13.80;90.90;;;;;;4977663;28;20035;-71
2021/11/29 10:59:27;;;;;;;0.00;0.00;;;13.80;90.80;;;;;;4977337;28;20031;-72
2021/11/29 11:01:57;;;;;;;0.00;0.00;;;13.80;91.20;;;;;;4976008;28;20023;-73
2021/11/29 11:04:31;;;;;;;0.00;0.00;;;13.90;90.70;;;;;;4955747;28;20386;-72
2021/11/29 11:06:57;;;;;;;;;;;13.90;90.70;;;;;;4960555;28;20094;-71
2021/11/29 11:09:31;;;;;;;0.00;0.00;;;13.90;90.90;;;;;;4958238;28;19917;-72
2021/11/29 11:11:57;;;;;;;0.00;0.00;;;14.00;90.30;;;;;;4961884;28;20032;-71
2021/11/29 11:14:36;;;;;;;0.00;0.00;;;14.00;90.60;;;;;;4964700;28;20049;-72
2021/11/29 11:17:14;;;;;;;0.00;0.00;;;14.00;90.30;;;;;;4961110;28;20027;-72
2021/11/29 11:19:56;;;;;;;0.00;0.00;;;14.00;90.00;;;;;;4960068;28;20370;-71
2021/11/29 11:22:31;;;;;;;0.00;0.00;;;14.00;89.40;;;;;;4957784;28;20035;-71
2021/11/29 11:25:07;;;;;;;0.00;0.00;;;14.00;89.20;;;;;;4957626;28;20118;-71
2021/11/29 11:27:38;;;;;;;0.00;0.00;;;13.90;89.00;;;;;;4957872;28;20045;-72
2021/11/29 11:30:07;;;;;;;0.00;0.00;;;13.80;89.20;;;;;;4969626;28;20101;-72
2021/11/29 11:32:39;;;;;;;0.00;0.00;;;13.80;89.40;;;;;;4957532;28;20054;-72
2021/11/29 11:35:11;;;;;;;0.00;0.00;;;13.80;89.10;;;;;;4957732;28;20031;-72
2021/11/29 11:37:39;;;;;;;0.00;0.00;;;13.80;89.10;;;;;;4957842;28;20358;-72
2021/11/29 11:40:08;;;;;;;0.00;0.00;;;13.80;88.80;;;;;;4976655;28;20026;-71
2021/11/29 11:42:34;;;;;;;0.00;0.00;;;13.80;88.80;;;;;;4976754;28;20035;-72
2021/11/29 11:45:00;;;;;;;0.00;0.00;;;13.80;88.90;;;;;;4976759;28;20085;-71
2021/11/29 11:47:30;;;;;;;0.00;0.00;;;13.80;88.80;;;;;;4976707;28;20045;-72
2021/11/29 11:49:56;;;;;;;0.00;0.00;;;13.70;88.70;;;;;;4975912;28;20037;-71
2021/11/29 11:52:22;;;;;;;0.00;0.00;;;13.70;88.80;;;;;;4961986;28;20031;-73
2021/11/29 11:54:48;;;;;;;0.00;0.00;;;13.70;89.00;;;;;;4955572;29;20098;-71
2021/11/29 11:57:19;;;;;;;0.00;0.00;;;13.70;88.80;;;;;;4957034;28;20421;-71
2021/11/29 12:00:07;;;;;;;0.10;0.00;;;13.70;89.50;;;;;;4956792;28;20107;-73
2021/11/29 12:03:01;;;;;;;0.00;0.00;;;13.70;89.40;;;;;;4955649;29;20031;-73
2021/11/29 12:05:29;;;;;;;0.00;0.00;;;13.70;89.60;;;;;;4957109;28;20416;-72
2021/11/29 12:07:57;;;;;;;0.00;0.00;;;13.70;89.40;;;;;;4967887;28;20037;-73
2021/11/29 12:10:28;;;;;;;0.00;0.00;;;13.70;89.40;;;;;;4966843;28;20042;-72
2021/11/29 12:12:59;;;;;;;0.00;0.00;;;13.70;89.50;;;;;;4963710;28;20432;-72
2021/11/29 12:15:38;;;;;;;0.00;0.00;;;13.70;89.80;;;;;;4957233;28;20027;-74
2021/11/29 12:18:04;;;;;;;0.00;0.00;;;13.70;90.00;;;;;;4956763;29;20520;-73
2021/11/29 12:20:30;;;;;;;0.00;0.00;;;13.80;90.00;;;;;;4956602;28;20031;-74
2021/11/29 12:22:56;;;;;;;0.00;0.00;;;13.80;89.90;;;;;;4956764;28;20070;-73
2021/11/29 12:25:25;;;;;;;0.00;0.00;;;13.80;90.10;;;;;;4956903;28;20062;-72
2021/11/29 12:27:59;;;;;;;0.00;0.00;;;13.80;90.20;;;;;;4956144;28;20381;-73
2021/11/29 12:30:34;;;;;;;0.00;0.00;;;13.90;90.10;;;;;;4956296;28;20023;-72
2021/11/29 12:33:02;;;;;;;0.00;0.00;;;13.90;90.00;;;;;;4955150;29;20027;-72
2021/11/29 12:35:41;;;;;;;0.00;0.00;;;14.00;89.80;;;;;;4956021;28;20043;-73
2021/11/29 12:38:10;;;;;;;0.00;0.00;;;13.90;89.60;;;;;;4956181;28;20035;-72
2021/11/29 12:41:06;;;;;;;0.00;0.00;;;13.90;89.80;;;;;;4956394;28;20492;-72
2021/11/29 12:43:38;;;;;;;0.00;0.00;;;14.00;90.00;;;;;;4951560;28;20040;-72
2021/11/29 12:46:31;;;;;;;0.00;0.00;;;14.00;90.00;;;;;;4954261;28;20062;-72
2021/11/29 12:49:05;;;;;;;0.00;0.00;;;14.00;90.00;;;;;;4955199;28;20039;-72
2021/11/29 12:51:42;;;;;;;0.00;0.00;;;14.00;89.80;;;;;;4973418;28;20055;-73